Time;durP1;ratioP1;P1;durP2;ratioP2;P2;SDS_P1;SDS_P2;PMS_P1;PMS_P2;Temp;Humidity;BMP_temperature;BMP_pressure;BME280_temperature;BME280_humidity;BME280_pressure;Samples;Min_cycle;Max_cycle;Signal;HPM_P1;HPM_P2
2021/09/30 08:10:46;;;;;;;8.20;2.03;;;13.80;99.90;;;15.20;68.01;101525.28;6232228;22;1397889;-89
2021/09/30 08:13:12;;;;;;;6.82;2.08;;;14.00;99.90;;;15.34;67.55;101521.97;6260441;22;20063;-87
2021/09/30 08:15:39;;;;;;;6.00;2.10;;;14.20;99.90;;;15.38;68.71;101525.69;6264601;22;20447;-85
2021/09/30 08:18:06;;;;;;;5.85;2.08;;;14.20;99.90;;;15.66;67.62;101535.56;6294005;22;20011;-87
2021/09/30 08:20:41;;;;;;;7.65;2.08;;;14.30;99.90;;;15.89;66.22;101520.72;6269834;22;20043;-87
2021/09/30 08:23:11;;;;;;;11.15;2.28;;;14.50;99.90;;;16.17;67.00;101519.25;6230491;23;20008;-88
2021/09/30 08:25:40;;;;;;;7.65;1.77;;;14.70;99.90;;;16.25;64.87;101523.81;6229077;23;20008;-88
2021/09/30 08:28:07;;;;;;;6.45;1.50;;;14.90;99.90;;;16.30;65.82;101525.50;6254129;23;20016;-89
2021/09/30 08:30:35;;;;;;;7.28;1.88;;;14.90;99.90;;;16.10;65.76;101536.03;6229646;23;20030;-87
2021/09/30 08:33:02;;;;;;;7.38;2.25;;;14.90;99.90;;;16.35;64.71;101530.81;6254785;23;20008;-87
2021/09/30 08:35:28;;;;;;;7.07;2.00;;;15.00;99.90;;;16.49;64.48;101541.53;6253220;23;20094;-88
2021/09/30 08:37:55;;;;;;;9.23;2.00;;;15.20;99.90;;;16.65;64.74;101534.59;6228230;23;20019;-88
2021/09/30 08:40:22;;;;;;;6.90;1.90;;;15.20;99.90;;;16.11;64.14;101534.03;6253540;22;20430;-87
2021/09/30 08:42:48;;;;;;;8.48;1.65;;;15.30;99.90;;;16.51;62.55;101537.16;6254467;23;20004;-89
2021/09/30 08:45:22;;;;;;;5.20;1.70;;;15.30;99.90;;;16.75;62.32;101536.78;6228321;23;20069;-88
2021/09/30 08:48:08;;;;;;;4.90;1.65;;;15.40;99.90;;;16.90;59.82;101535.00;6229063;23;20446;-88
2021/09/30 08:50:40;;;;;;;8.07;2.03;;;15.50;99.90;;;16.96;61.82;101541.13;6228105;23;20385;-88
2021/09/30 08:53:12;;;;;;;10.98;2.65;;;15.50;99.90;;;17.15;61.06;101530.53;6228678;23;20004;-87
2021/09/30 08:55:40;;;;;;;10.85;3.60;;;15.80;99.90;;;17.45;61.25;101539.00;6229010;23;20102;-90
2021/09/30 08:58:09;;;;;;;3.83;1.48;;;15.90;99.90;;;17.41;59.62;101535.31;6229080;23;20004;-90
2021/09/30 09:00:42;;;;;;;6.07;1.75;;;16.00;99.90;;;17.35;59.86;101534.84;6232057;23;20034;-87
2021/09/30 09:03:09;;;;;;;6.95;1.73;;;16.00;99.90;;;17.80;59.59;101544.31;6226771;23;20068;-86
2021/09/30 09:05:40;;;;;;;10.30;1.73;;;16.10;99.90;;;17.56;58.83;101547.66;6226821;23;20041;-89
2021/09/30 09:08:11;;;;;;;9.10;2.10;;;16.20;99.90;;;17.06;60.51;101535.63;6228227;23;20000;-90
2021/09/30 09:10:42;;;;;;;4.35;1.23;;;15.90;99.90;;;17.04;59.61;101542.88;6227506;23;20008;-88
2021/09/30 09:13:13;;;;;;;8.95;1.88;;;16.00;99.90;;;17.46;59.36;101535.00;6229127;23;20075;-88
2021/09/30 09:15:57;;;;;;;6.63;1.73;;;16.10;99.90;;;17.64;57.82;101536.06;6228326;23;20008;-89
2021/09/30 09:18:35;;;;;;;9.35;1.45;;;16.40;99.90;;;18.03;56.30;101533.69;6229434;23;20008;-90
2021/09/30 09:21:15;;;;;;;7.10;1.80;;;16.50;99.90;;;18.11;55.93;101538.19;6257653;22;20015;-89
2021/09/30 09:23:51;;;;;;;5.43;1.48;;;16.70;99.90;;;17.86;56.68;101537.94;6233156;23;20020;-89
2021/09/30 09:26:23;;;;;;;8.75;1.80;;;16.70;99.90;;;18.15;55.79;101544.72;6228475;23;20023;-88
2021/09/30 09:29:15;;;;;;;7.45;1.75;;;16.80;99.90;;;17.73;56.33;101547.03;6230967;23;19992;-88
2021/09/30 09:31:52;;;;;;;7.90;2.15;;;16.60;99.90;;;18.02;55.29;101545.34;6229048;23;20058;-88
2021/09/30 09:34:36;;;;;;;6.65;1.50;;;16.80;99.90;;;18.15;53.84;101544.72;6255485;23;20008;-88
2021/09/30 09:37:40;;;;;;;9.20;1.40;;;16.80;99.90;;;18.38;55.63;101542.50;6233284;23;20010;-87
2021/09/30 09:40:19;;;;;;;8.18;1.65;;;16.90;99.90;;;18.78;54.23;101533.16;6232111;23;20038;-88
2021/09/30 09:42:46;;;;;;;7.00;1.60;;;17.20;99.90;;;18.47;52.67;101530.06;6232702;23;20023;-87
2021/09/30 09:45:14;;;;;;;6.43;1.95;;;17.20;99.90;;;18.65;54.40;101536.72;6234345;23;20004;-86
2021/09/30 09:47:44;;;;;;;8.00;1.70;;;17.20;99.90;;;18.60;54.07;101534.25;6232027;23;20441;-89
2021/09/30 09:50:28;;;;;;;8.55;1.80;;;17.20;99.90;;;18.61;53.60;101525.38;6232765;23;20031;-87
2021/09/30 09:53:03;;;;;;;6.30;1.80;;;17.10;99.90;;;17.96;52.82;101536.44;6264790;23;20040;-87
2021/09/30 09:55:41;;;;;;;9.23;1.63;;;17.00;99.90;;;18.16;52.36;101529.38;6233059;23;20008;-87
2021/09/30 09:58:18;;;;;;;7.82;1.83;;;16.90;99.90;;;18.58;53.96;101537.47;6233212;23;20004;-88
2021/09/30 10:00:50;;;;;;;4.32;1.25;;;17.00;99.90;;;18.37;53.03;101534.41;6231980;23;20014;-87
2021/09/30 10:03:22;;;;;;;9.35;1.65;;;17.10;99.90;;;18.01;53.24;101529.63;6257927;23;20330;-89
2021/09/30 10:05:50;;;;;;;8.52;1.83;;;16.90;99.90;;;18.36;53.45;101533.63;6230550;23;20046;-86
2021/09/30 10:08:19;;;;;;;8.40;1.45;;;17.00;99.90;;;18.05;53.28;101524.78;6233390;23;20022;-87
2021/09/30 10:10:49;;;;;;;7.10;1.40;;;16.90;99.90;;;18.34;52.78;101524.69;6229445;23;20008;-87
2021/09/30 10:13:16;;;;;;;8.25;2.03;;;17.00;99.90;;;18.37;52.99;101523.91;6229781;23;20008;-89
2021/09/30 10:15:43;;;;;;;9.32;1.98;;;17.10;99.90;;;18.40;54.68;101530.78;6228936;23;20008;-87
2021/09/30 10:18:13;;;;;;;7.95;1.60;;;17.10;99.90;;;18.19;52.91;101524.94;6228364;23;20009;-88
2021/09/30 10:20:42;;;;;;;7.35;1.27;;;17.00;99.90;;;18.73;54.29;101535.56;6235949;23;20400;-87
2021/09/30 10:23:11;;;;;;;7.57;1.73;;;17.20;99.90;;;19.11;52.99;101523.69;6226650;23;20087;-89
2021/09/30 10:25:47;;;;;;;4.47;1.42;;;17.40;99.90;;;18.74;51.48;101531.53;6254012;23;20453;-89
2021/09/30 10:28:15;;;;;;;;;;;17.40;99.90;;;18.19;52.78;101524.94;6262777;23;20062;-85
2021/09/30 10:30:48;;;;;;;4.63;1.17;;;17.10;99.90;;;18.17;53.92;101525.31;6229237;23;20276;-89
2021/09/30 10:33:41;;;;;;;8.70;1.80;;;17.00;99.90;;;18.19;53.07;101528.59;6225108;23;20008;-90
2021/09/30 10:36:35;;;;;;;6.93;1.67;;;17.00;99.90;;;17.78;53.80;101521.28;6228101;23;20012;-88
2021/09/30 10:39:29;;;;;;;6.65;1.73;;;16.90;99.90;;;17.36;54.29;101518.72;6227811;23;20008;-88
2021/09/30 10:42:02;;;;;;;5.72;2.15;;;16.60;99.90;;;16.93;54.44;101517.31;6252761;23;20051;-88
2021/09/30 10:44:36;;;;;;;6.80;1.40;;;16.20;99.90;;;16.91;54.92;101527.34;6226968;23;20463;-87
2021/09/30 10:47:07;;;;;;;8.48;1.88;;;15.90;99.90;;;17.26;55.31;101527.84;6227381;23;20000;-88
2021/09/30 10:49:49;;;;;;;7.03;1.75;;;16.20;99.90;;;17.20;53.53;101521.75;6228522;23;20442;-89
2021/09/30 10:52:32;;;;;;;7.57;1.30;;;16.30;99.90;;;17.86;51.87;101520.16;6227820;23;20462;-87
2021/09/30 10:55:21;;;;;;;5.78;1.35;;;16.60;99.90;;;17.68;51.28;101522.78;6226490;23;20015;-87
2021/09/30 10:57:58;;;;;;;4.60;1.30;;;16.70;98.00;;;18.25;50.27;101515.72;6228555;23;20008;-87
2021/09/30 11:00:33;;;;;;;4.28;1.35;;;17.00;97.60;;;18.39;50.63;101526.38;6227757;23;20588;-87
2021/09/30 11:03:02;;;;;;;7.70;1.45;;;17.10;98.10;;;17.71;51.00;101526.84;6230537;23;20406;-88
2021/09/30 11:05:44;;;;;;;7.57;1.52;;;16.80;97.00;;;17.60;52.44;101523.06;6255036;23;20087;-86
2021/09/30 11:08:33;;;;;;;6.55;1.52;;;16.50;98.50;;;18.03;52.54;101518.72;6241611;22;19997;-85
2021/09/30 11:11:23;;;;;;;5.90;1.50;;;16.80;99.20;;;18.04;49.64;101507.06;6266351;22;20024;-86
2021/09/30 11:14:12;;;;;;;9.65;1.83;;;17.10;96.10;;;18.37;49.38;101514.63;6228226;23;20060;-86
2021/09/30 11:16:47;;;;;;;6.47;1.50;;;17.20;95.60;;;18.81;49.78;101506.13;6225735;23;20446;-86
2021/09/30 11:19:43;;;;;;;5.97;1.38;;;17.50;96.40;;;18.50;49.31;101509.50;6228515;23;20035;-87
2021/09/30 11:22:13;;;;;;;6.00;1.17;;;17.50;95.20;;;18.68;48.52;101497.13;6228105;23;20469;-87
2021/09/30 11:25:06;;;;;;;5.10;1.15;;;17.60;94.00;;;19.01;47.34;101510.28;6227025;23;20016;-88
2021/09/30 11:27:33;;;;;;;5.10;1.50;;;17.70;93.50;;;19.06;46.80;101506.28;6228193;23;20004;-88
2021/09/30 11:30:36;;;;;;;5.53;1.23;;;17.90;92.50;;;19.05;45.30;101501.81;6227215;23;20034;-87
2021/09/30 11:33:07;;;;;;;4.82;1.17;;;17.90;90.40;;;18.52;46.72;101507.91;6226485;23;20082;-87
2021/09/30 11:35:34;;;;;;;7.68;1.55;;;17.40;91.40;;;18.31;47.39;101499.22;6251250;23;20008;-87
2021/09/30 11:38:03;;;;;;;7.63;1.33;;;17.20;92.00;;;18.07;46.55;101503.44;6225557;23;20446;-87
2021/09/30 11:40:29;;;;;;;2.67;1.10;;;17.00;91.10;;;17.82;48.69;101497.50;6225137;23;20012;-89
2021/09/30 11:42:56;;;;;;;5.53;1.52;;;16.70;93.10;;;17.14;48.02;101497.03;6226631;23;20018;-90
2021/09/30 11:45:28;;;;;;;3.95;1.38;;;16.40;91.40;;;16.77;50.01;101502.53;6226911;23;20019;-89
2021/09/30 11:48:07;;;;;;;6.75;1.15;;;15.90;93.10;;;16.81;51.68;101506.25;6226604;23;20513;-88
2021/09/30 11:50:37;;;;;;;4.70;1.30;;;15.70;94.80;;;17.27;49.45;101495.63;6229442;23;20334;-88
2021/09/30 11:53:10;;;;;;;5.55;1.25;;;16.00;93.90;;;17.68;49.28;101488.88;6229998;23;20024;-88
2021/09/30 11:55:43;;;;;;;6.80;1.08;;;16.30;93.90;;;17.42;48.79;101488.94;6225634;23;20012;-90
2021/09/30 11:58:13;;;;;;;6.47;1.30;;;16.30;92.80;;;17.84;49.46;101486.66;6250964;23;20016;-87
2021/09/30 12:00:45;;;;;;;7.60;1.50;;;16.40;94.30;;;17.86;49.76;101495.53;6225155;23;20353;-88
2021/09/30 12:03:11;;;;;;;4.43;1.25;;;16.50;94.70;;;17.93;49.47;101483.50;6226220;23;20516;-87
2021/09/30 12:05:44;;;;;;;3.55;1.20;;;16.50;94.00;;;17.54;46.86;101471.72;6251533;23;20013;-91
2021/09/30 12:08:18;;;;;;;7.82;1.13;;;16.50;91.20;;;17.17;46.89;101482.97;6252190;23;20012;-88
2021/09/30 12:11:07;;;;;;;6.35;1.17;;;16.30;90.30;;;17.17;46.79;101485.81;6228987;23;20008;-87
2021/09/30 12:13:45;;;;;;;;;;;;;;;;;;;;;
2021/09/30 12:17:00;;;;;;;5.50;1.10;;;16.40;90.30;;;17.80;46.69;101474.50;6241995;23;20015;-87
2021/09/30 12:19:53;;;;;;;7.05;1.38;;;16.60;90.80;;;18.27;46.31;101478.56;6196784;23;20005;-88
2021/09/30 12:22:46;;;;;;;3.60;0.80;;;16.90;91.00;;;17.96;46.63;101467.78;6195233;23;20012;-87
2021/09/30 12:25:25;;;;;;;4.53;1.00;;;16.80;90.20;;;17.92;47.22;101464.91;6194087;23;20092;-89
2021/09/30 12:28:05;;;;;;;4.30;1.25;;;16.70;91.10;;;18.11;47.67;101480.88;6194504;23;20086;-89
2021/09/30 12:30:52;;;;;;;6.07;1.27;;;16.80;91.50;;;17.65;48.37;101463.41;6194345;23;20401;-87
2021/09/30 12:33:18;;;;;;;4.30;0.95;;;16.70;90.90;;;17.77;47.40;101463.16;6173688;23;20013;-88
2021/09/30 12:35:44;;;;;;;5.38;1.40;;;16.70;90.70;;;18.25;47.88;101450.69;6195957;23;20012;-87
2021/09/30 12:38:20;;;;;;;3.38;1.00;;;16.80;91.80;;;17.96;46.41;101459.28;6195275;23;20019;-87
2021/09/30 12:40:57;;;;;;;4.28;1.05;;;16.90;90.00;;;18.33;47.78;101454.41;6194855;23;20008;-88
2021/09/30 12:43:34;;;;;;;4.57;1.13;;;16.90;91.50;;;18.50;45.54;101447.25;6193885;23;20125;-87
2021/09/30 12:46:10;;;;;;;4.85;1.20;;;17.10;89.60;;;18.60;44.74;101443.69;6194154;23;20037;-88
2021/09/30 12:48:39;;;;;;;3.70;1.02;;;17.10;88.10;;;18.04;46.32;101433.53;6191823;23;20008;-87
2021/09/30 12:51:17;;;;;;;7.90;1.58;;;17.10;88.90;;;18.57;45.46;101438.81;6191442;23;20015;-87
2021/09/30 12:53:52;;;;;;;7.63;1.40;;;17.30;88.80;;;18.77;45.77;101434.53;6217790;23;20004;-88
2021/09/30 12:56:29;;;;;;;7.45;1.30;;;17.60;88.80;;;18.38;43.21;101432.22;6216402;23;20510;-87
2021/09/30 12:59:08;;;;;;;7.60;1.13;;;17.50;81.70;;;18.32;43.35;101428.13;6192805;23;20064;-87
2021/09/30 13:01:35;;;;;;;4.55;1.10;;;17.20;82.10;;;18.15;44.63;101434.44;6192609;23;20014;-87
2021/09/30 13:04:07;;;;;;;6.22;1.13;;;16.90;84.10;;;17.78;44.56;101430.88;6222014;23;20012;-88
2021/09/30 13:06:38;;;;;;;6.05;1.23;;;16.70;83.80;;;17.27;44.94;101420.16;6194240;23;20008;-89
2021/09/30 13:09:05;;;;;;;5.32;1.10;;;16.30;83.30;;;17.55;45.54;101416.91;6194256;23;20009;-89
2021/09/30 13:11:37;;;;;;;7.40;1.27;;;16.40;85.90;;;17.69;47.12;101419.06;6194268;23;20502;-89
2021/09/30 13:14:35;;;;;;;4.10;0.90;;;16.50;88.20;;;17.96;44.86;101414.88;6194967;23;20015;-85
2021/09/30 13:17:27;;;;;;;2.95;0.80;;;16.80;85.20;;;18.31;45.64;101415.19;6183403;23;20058;-88
2021/09/30 13:20:08;;;;;;;3.40;1.30;;;17.00;87.80;;;18.07;44.85;101415.81;6194277;23;20045;-87
2021/09/30 13:22:45;;;;;;;5.95;0.95;;;17.00;84.70;;;18.04;46.37;101419.41;6195579;23;20012;-87
2021/09/30 13:25:26;;;;;;;5.55;0.98;;;16.90;87.50;;;17.82;46.09;101411.91;6196826;23;20346;-85
2021/09/30 13:27:58;;;;;;;3.72;0.90;;;16.70;86.80;;;17.58;46.29;101423.78;6193871;23;20059;-88
2021/09/30 13:30:36;;;;;;;6.13;1.00;;;16.60;85.90;;;17.66;45.85;101411.38;6196181;23;20398;-85
2021/09/30 13:33:05;;;;;;;4.38;0.93;;;16.60;85.30;;;17.77;44.86;101412.28;6195136;23;20312;-87
2021/09/30 13:35:39;;;;;;;3.72;0.68;;;16.60;84.00;;;17.50;44.56;101402.31;6194317;23;20338;-88
2021/09/30 13:38:22;;;;;;;5.35;1.17;;;16.50;82.20;;;17.53;46.09;101399.47;6196185;23;20013;-88
2021/09/30 13:40:48;;;;;;;5.60;1.00;;;16.50;85.30;;;17.50;46.08;101397.44;6195497;23;20088;-87
2021/09/30 13:43:19;;;;;;;3.90;0.88;;;16.40;85.60;;;17.97;46.21;101402.38;6221571;23;20051;-89
2021/09/30 13:45:48;;;;;;;6.88;1.30;;;16.60;87.10;;;18.06;45.80;101391.56;6195724;23;20004;-87
2021/09/30 13:48:16;;;;;;;2.95;0.80;;;16.80;86.20;;;17.70;45.45;101392.44;6196867;23;20001;-86
2021/09/30 13:50:45;;;;;;;3.33;1.13;;;16.60;84.10;;;17.61;44.18;101397.59;6196782;23;20012;-87
2021/09/30 13:53:22;;;;;;;;;;;;;;;;;;;;;
2021/09/30 13:55:56;;;;;;;5.03;0.70;;;16.40;83.00;;;17.40;45.72;101386.88;6224090;23;20032;-87
2021/09/30 13:58:22;;;;;;;4.43;1.00;;;16.40;84.60;;;17.58;45.99;101393.53;6197141;23;20081;-87
2021/09/30 14:00:48;;;;;;;3.92;1.10;;;16.40;84.90;;;17.42;46.78;101383.63;6223300;23;20169;-89
2021/09/30 14:03:20;;;;;;;2.97;0.93;;;16.50;87.00;;;17.48;45.64;101376.44;6224116;23;20068;-88
2021/09/30 14:05:45;;;;;;;5.55;1.33;;;16.40;84.10;;;17.07;45.73;101381.22;6199513;23;20511;-87
2021/09/30 14:08:13;;;;;;;8.70;0.98;;;16.20;83.00;;;17.40;47.48;101378.38;6224322;23;20005;-88
2021/09/30 14:10:39;;;;;;;2.80;0.90;;;16.30;87.50;;;17.39;46.42;101380.41;6199245;23;20016;-87
2021/09/30 14:13:05;;;;;;;3.25;0.80;;;16.20;85.90;;;17.33;47.82;101379.13;6199760;23;20008;-87
2021/09/30 14:15:33;;;;;;;4.60;1.20;;;16.20;88.20;;;17.21;45.49;101372.94;6222063;23;20371;-87
2021/09/30 14:17:58;;;;;;;5.65;1.00;;;16.20;84.00;;;17.07;46.28;101376.41;6195090;23;20338;-84
2021/09/30 14:20:24;;;;;;;5.07;1.13;;;16.00;84.80;;;16.90;46.96;101362.06;6219489;23;20016;-85
2021/09/30 14:22:50;;;;;;;5.97;1.10;;;15.80;85.50;;;16.70;48.64;101369.84;6221728;23;20009;-86
2021/09/30 14:25:16;;;;;;;4.55;0.70;;;15.70;88.60;;;16.83;49.00;101360.75;6223971;23;20546;-86
2021/09/30 14:27:42;;;;;;;3.70;0.95;;;15.60;90.10;;;16.84;47.75;101370.06;6222741;23;20035;-87
2021/09/30 14:30:11;;;;;;;3.08;0.82;;;15.60;89.00;;;16.74;48.47;101363.06;6197830;23;20040;-84
2021/09/30 14:32:37;;;;;;;4.82;1.00;;;15.50;89.80;;;16.85;49.78;101357.56;6197976;23;20570;-86
2021/09/30 14:35:04;;;;;;;3.95;1.02;;;15.50;91.00;;;16.66;49.02;101361.34;6199902;23;20418;-85
2021/09/30 14:37:30;;;;;;;6.13;1.52;;;15.50;90.10;;;16.55;49.92;101351.13;6208102;23;20046;-82
2021/09/30 14:39:56;;;;;;;6.55;1.20;;;15.40;90.80;;;16.54;51.76;101343.81;6206242;23;20023;-85
2021/09/30 14:42:22;;;;;;;5.28;1.25;;;15.40;92.00;;;16.54;50.99;101341.00;6222366;23;20004;-88
2021/09/30 14:44:48;;;;;;;4.45;1.02;;;15.30;92.00;;;16.39;51.50;101340.00;6197151;23;20004;-86
2021/09/30 14:47:15;;;;;;;5.60;1.02;;;15.30;92.40;;;16.44;50.93;101333.22;6196365;23;20015;-86
2021/09/30 14:49:41;;;;;;;3.92;1.02;;;15.30;92.00;;;16.54;51.83;101321.25;6198009;23;20030;-84
2021/09/30 14:52:12;;;;;;;5.22;1.30;;;15.30;93.00;;;16.54;51.20;101326.88;6225115;23;20004;-87
2021/09/30 14:54:40;;;;;;;4.97;1.02;;;15.30;92.50;;;16.56;51.00;101321.72;6195773;23;20016;-86
2021/09/30 14:57:07;;;;;;;7.78;1.45;;;15.30;92.50;;;16.57;51.30;101326.97;6223125;23;20013;-82
2021/09/30 14:59:33;;;;;;;3.03;1.08;;;15.30;92.60;;;16.39;51.71;101327.91;6196247;23;20091;-83
2021/09/30 15:01:58;;;;;;;7.07;1.08;;;15.30;92.80;;;16.20;52.64;101309.09;6221915;23;20067;-84
2021/09/30 15:04:24;;;;;;;6.90;1.20;;;15.30;93.10;;;16.29;51.71;101313.28;6196063;23;20023;-84
2021/09/30 15:06:51;;;;;;;7.03;1.42;;;15.30;92.70;;;16.28;52.08;101316.47;6196660;23;20005;-84
2021/09/30 15:09:17;;;;;;;4.80;1.33;;;15.20;93.10;;;16.32;52.92;101308.88;6218002;23;20374;-87
2021/09/30 15:11:44;;;;;;;4.45;1.20;;;15.30;93.70;;;16.20;53.76;101311.94;6190602;23;20425;-86
2021/09/30 15:14:11;;;;;;;4.22;1.15;;;15.10;94.60;;;16.11;53.74;101314.22;6218258;23;20007;-83
2021/09/30 15:16:42;;;;;;;6.07;1.55;;;15.00;94.40;;;16.29;53.48;101310.44;6219378;23;20055;-85
2021/09/30 15:19:16;;;;;;;5.40;1.23;;;15.10;94.80;;;16.31;54.03;101310.88;6219850;23;20004;-84
2021/09/30 15:21:43;;;;;;;5.05;1.23;;;15.10;95.50;;;16.25;54.06;101312.41;6219138;23;20004;-85
2021/09/30 15:24:10;;;;;;;4.18;1.50;;;15.10;95.30;;;16.35;54.32;101310.94;6192142;23;20095;-85
2021/09/30 15:26:36;;;;;;;3.83;1.60;;;15.10;95.90;;;16.15;55.07;101309.44;6218655;23;20036;-84
2021/09/30 15:29:04;;;;;;;6.75;1.30;;;15.20;96.10;;;16.20;53.89;101315.56;6217612;23;19997;-86
2021/09/30 15:31:32;;;;;;;6.15;1.33;;;15.10;95.10;;;16.20;54.73;101309.09;6216740;23;20005;-87
2021/09/30 15:33:58;;;;;;;5.30;1.48;;;15.10;96.10;;;16.31;54.59;101316.50;6189592;23;20096;-87
2021/09/30 15:36:25;;;;;;;5.15;1.50;;;15.10;96.40;;;16.36;53.86;101321.03;6217906;23;20015;-88
2021/09/30 15:38:54;;;;;;;9.90;1.38;;;15.20;95.80;;;16.62;53.95;101315.38;6216069;23;20008;-86
2021/09/30 15:41:22;;;;;;;3.40;1.30;;;15.30;96.40;;;16.37;54.18;101308.56;6217201;23;20040;-87
2021/09/30 15:43:49;;;;;;;5.10;1.00;;;15.30;96.20;;;16.37;54.16;101305.75;6218894;23;20081;-86
2021/09/30 15:46:16;;;;;;;6.90;1.67;;;15.20;96.00;;;16.44;54.48;101300.16;6189902;23;20378;-87
2021/09/30 15:48:43;;;;;;;7.80;1.17;;;15.20;96.80;;;16.48;54.48;101298.22;6191184;23;20005;-86
2021/09/30 15:51:13;;;;;;;3.88;1.40;;;15.10;97.00;;;16.49;55.23;101296.22;6214907;23;20385;-86
2021/09/30 15:53:42;;;;;;;5.82;1.10;;;15.10;98.00;;;16.37;54.95;101308.56;6218817;23;20035;-87
2021/09/30 15:56:11;;;;;;;6.75;1.20;;;15.10;97.60;;;16.28;55.85;101300.34;6194581;23;20084;-87
2021/09/30 15:58:37;;;;;;;4.53;1.70;;;15.00;98.40;;;16.11;55.68;101302.94;6219528;23;20060;-86
2021/09/30 16:01:04;;;;;;;5.43;1.30;;;14.90;98.30;;;16.05;56.23;101305.28;6217729;23;20008;-87
2021/09/30 16:03:31;;;;;;;5.28;1.60;;;14.80;99.00;;;15.98;56.68;101299.53;6217267;23;20005;-86
2021/09/30 16:06:00;;;;;;;8.27;1.60;;;14.80;99.70;;;15.95;57.55;101294.66;6192529;23;20004;-86
2021/09/30 16:08:26;;;;;;;6.25;1.40;;;14.70;99.90;;;15.79;57.30;101289.19;6194797;23;20000;-83
2021/09/30 16:10:52;;;;;;;4.50;1.10;;;14.60;99.90;;;15.62;57.89;101288.88;6220805;23;20044;-87
2021/09/30 16:13:18;;;;;;;6.18;1.60;;;14.50;99.90;;;15.68;57.61;101296.63;6197443;23;20039;-86
2021/09/30 16:15:43;;;;;;;8.73;1.30;;;14.50;99.90;;;15.48;58.70;101295.06;6221265;23;20008;-87
2021/09/30 16:18:09;;;;;;;7.78;1.00;;;14.40;99.90;;;15.58;58.06;101285.19;6195062;23;20005;-86
2021/09/30 16:20:38;;;;;;;8.25;1.50;;;14.40;99.90;;;15.53;57.25;101288.31;6193176;23;20043;-85
2021/09/30 16:23:04;;;;;;;7.40;1.38;;;14.30;99.90;;;15.51;57.32;101282.25;6218535;23;20008;-86
2021/09/30 16:25:30;;;;;;;5.07;1.20;;;14.30;99.90;;;15.36;57.85;101283.97;6220883;23;20338;-87
2021/09/30 16:27:56;;;;;;;3.92;1.13;;;14.20;99.90;;;15.17;58.42;101286.84;6221634;23;20004;-88
2021/09/30 16:30:22;;;;;;;7.03;1.42;;;14.10;99.90;;;15.22;58.52;101278.91;6195961;23;20103;-87
2021/09/30 16:32:49;;;;;;;3.22;1.35;;;14.10;99.90;;;15.00;58.62;101271.25;6224822;23;20023;-85
2021/09/30 16:35:15;;;;;;;6.40;1.40;;;14.10;99.90;;;15.03;56.66;101280.94;6227814;23;20505;-86
2021/09/30 16:37:42;;;;;;;4.57;0.95;;;14.00;99.90;;;15.04;56.70;101279.75;6226025;23;20040;-86
2021/09/30 16:40:11;;;;;;;5.60;1.00;;;14.00;99.90;;;15.04;57.14;101268.50;6223418;23;20005;-86
2021/09/30 16:42:38;;;;;;;2.60;0.82;;;13.90;99.90;;;14.97;57.15;101268.38;6223051;23;20009;-85
2021/09/30 16:45:07;;;;;;;5.03;1.20;;;13.80;99.90;;;14.89;57.35;101264.63;6218163;23;20013;-88
2021/09/30 16:47:38;;;;;;;4.85;1.35;;;13.80;99.90;;;14.87;58.22;101261.34;6216931;23;20000;-85
2021/09/30 16:50:13;;;;;;;3.83;1.13;;;13.80;99.90;;;14.75;57.92;101262.34;6077490;23;20021;-86
2021/09/30 16:52:44;;;;;;;5.30;1.50;;;13.70;99.90;;;14.74;57.92;101260.72;6187314;23;20009;-85
2021/09/30 16:55:14;;;;;;;5.07;1.13;;;13.60;99.90;;;14.72;57.96;101257.47;6190575;23;20343;-87
2021/09/30 16:57:41;;;;;;;6.05;1.30;;;13.60;99.90;;;14.58;58.47;101267.59;6192011;23;20013;-86
2021/09/30 17:00:14;;;;;;;7.75;0.93;;;13.50;99.90;;;14.56;59.17;101270.78;6196792;23;20332;-86
2021/09/30 17:02:41;;;;;;;5.97;1.10;;;13.50;99.90;;;14.56;59.54;101258.72;6190501;23;20025;-87
2021/09/30 17:05:09;;;;;;;5.75;1.60;;;13.40;99.90;;;14.45;59.45;101268.94;6186344;23;20434;-86
2021/09/30 17:07:35;;;;;;;5.70;1.58;;;13.30;99.90;;;14.32;60.17;101273.84;6186464;23;20009;-87
2021/09/30 17:10:09;;;;;;;4.68;0.90;;;13.20;99.90;;;14.21;60.65;101265.19;6186947;23;20009;-86
2021/09/30 17:12:38;;;;;;;6.00;1.40;;;13.10;99.90;;;14.21;60.80;101270.81;6188565;23;20001;-87
2021/09/30 17:15:11;;;;;;;6.50;1.20;;;13.20;99.90;;;14.22;61.16;101266.81;6188530;23;20080;-86
2021/09/30 17:17:37;;;;;;;4.57;1.20;;;13.10;99.90;;;14.22;60.79;101269.63;6186659;23;20037;-87
2021/09/30 17:20:05;;;;;;;5.55;1.70;;;13.00;99.90;;;14.17;61.63;101260.66;6188874;23;20009;-87
2021/09/30 17:22:31;;;;;;;5.10;1.10;;;12.90;99.90;;;14.08;61.68;101262.88;6186101;23;20009;-87
2021/09/30 17:24:57;;;;;;;6.50;1.42;;;12.90;99.90;;;13.95;62.05;101267.00;6187719;23;20009;-86
2021/09/30 17:27:23;;;;;;;4.18;1.48;;;12.80;99.90;;;13.84;62.78;101258.31;6212214;23;20005;-85
2021/09/30 17:29:54;;;;;;;4.20;1.20;;;12.70;99.90;;;13.83;63.17;101262.31;6188832;23;20016;-86
2021/09/30 17:32:20;;;;;;;2.88;1.10;;;12.70;99.90;;;13.83;63.62;101255.88;6187353;23;20103;-87
2021/09/30 17:34:48;;;;;;;9.85;1.17;;;12.60;99.90;;;13.75;63.62;101252.09;6187762;23;20017;-85
2021/09/30 17:37:14;;;;;;;7.47;1.52;;;12.60;99.90;;;13.73;63.63;101257.25;6187582;23;20019;-89
2021/09/30 17:39:44;;;;;;;5.38;1.65;;;12.60;99.90;;;13.65;64.26;101259.06;6189306;23;20016;-88
2021/09/30 17:42:11;;;;;;;8.20;1.50;;;12.60;99.90;;;13.64;64.52;101242.59;6190764;23;20009;-88
2021/09/30 17:44:38;;;;;;;8.00;1.05;;;12.60;99.90;;;13.69;64.51;101247.94;6186878;23;20009;-88
2021/09/30 17:47:08;;;;;;;4.30;1.17;;;12.50;99.90;;;13.80;63.73;101246.22;6185107;23;20009;-87
2021/09/30 17:49:35;;;;;;;4.63;1.20;;;12.60;99.90;;;13.80;64.34;101248.19;6184097;23;20008;-86
2021/09/30 17:52:02;;;;;;;4.10;1.52;;;12.60;99.90;;;13.70;64.61;101247.56;6185914;23;20021;-85
2021/09/30 17:54:28;;;;;;;4.20;1.23;;;12.60;99.90;;;13.61;65.02;101243.34;6185467;23;20012;-86
2021/09/30 17:56:54;;;;;;;6.45;1.42;;;12.50;99.90;;;13.60;65.19;101250.13;6185241;23;20096;-87
2021/09/30 17:59:20;;;;;;;7.38;1.15;;;12.50;99.90;;;13.49;65.56;101243.41;6185519;23;20059;-86
2021/09/30 18:01:46;;;;;;;6.80;1.70;;;12.40;99.90;;;13.42;66.25;101237.66;6186910;23;20009;-85
2021/09/30 18:04:14;;;;;;;5.80;1.73;;;12.40;99.90;;;13.40;66.31;101235.19;6186331;23;20075;-86
2021/09/30 18:06:40;;;;;;;6.70;1.73;;;12.40;99.90;;;13.30;66.90;101244.16;6187195;23;20005;-87
2021/09/30 18:09:05;;;;;;;7.13;2.35;;;12.30;99.90;;;13.28;67.36;101235.31;6187153;23;20052;-88
2021/09/30 18:11:32;;;;;;;5.22;2.28;;;12.20;99.90;;;13.27;67.22;101230.88;6189248;23;20005;-86
2021/09/30 18:14:00;;;;;;;5.13;2.08;;;12.10;99.90;;;13.12;68.31;101234.47;6188458;23;20013;-89
2021/09/30 18:16:29;;;;;;;5.50;2.00;;;12.10;99.90;;;13.09;68.54;101229.59;6187562;23;20012;-85
2021/09/30 18:18:58;;;;;;;5.45;2.30;;;12.00;99.90;;;13.04;69.15;101227.00;6189146;23;20103;-88
2021/09/30 18:21:25;;;;;;;8.88;2.30;;;12.00;99.90;;;12.97;69.79;101219.22;6187102;23;20471;-86
2021/09/30 18:23:57;;;;;;;4.18;1.63;;;11.90;99.90;;;12.99;69.70;101213.28;6185608;23;20347;-90
2021/09/30 18:26:23;;;;;;;4.13;1.30;;;12.00;99.90;;;12.96;70.29;101220.44;6186508;23;20005;-86
2021/09/30 18:28:55;;;;;;;6.03;1.52;;;11.90;99.90;;;12.96;70.05;101223.22;6124372;23;20017;-87
2021/09/30 18:31:25;;;;;;;4.43;1.13;;;11.90;99.90;;;12.97;70.45;101226.84;6189958;23;20012;-87
2021/09/30 18:33:53;;;;;;;8.40;1.90;;;11.90;99.90;;;13.02;70.78;101227.41;6186814;23;20017;-86
2021/09/30 18:36:21;;;;;;;8.13;1.75;;;11.90;99.90;;;13.07;70.48;101231.91;6213996;23;20013;-86
2021/09/30 18:38:48;;;;;;;4.75;1.25;;;11.90;99.90;;;13.02;70.89;101229.38;6189963;23;20008;-88
2021/09/30 18:41:21;;;;;;;6.00;1.42;;;12.00;99.90;;;13.08;70.72;101228.78;6188710;23;20013;-89
2021/09/30 18:43:49;;;;;;;4.97;1.50;;;12.00;99.90;;;13.09;71.05;101227.63;6187942;23;20016;-85